sensor_id;sensor_type;location;lat;lon;timestamp;temperature;humidity
15969;DHT22;8085;53.472;9.794;2022-11-13T00:02:03;4.60;99.90
15969;DHT22;8085;53.472;9.794;2022-11-13T00:04:31;4.60;99.90
15969;DHT22;8085;53.472;9.794;2022-11-13T00:06:58;4.60;99.90
15969;DHT22;8085;53.472;9.794;2022-11-13T00:09:25;4.60;99.90
15969;DHT22;8085;53.472;9.794;2022-11-13T00:11:51;4.60;99.90
15969;DHT22;8085;53.472;9.794;2022-11-13T00:14:18;4.70;99.90
15969;DHT22;8085;53.472;9.794;2022-11-13T00:16:45;4.60;99.90
15969;DHT22;8085;53.472;9.794;2022-11-13T00:19:12;4.70;99.90
15969;DHT22;8085;53.472;9.794;2022-11-13T00:21:40;4.70;99.90
15969;DHT22;8085;53.472;9.794;2022-11-13T00:24:07;4.70;99.90
15969;DHT22;8085;53.472;9.794;2022-11-13T00:26:34;4.60;99.90
15969;DHT22;8085;53.472;9.794;2022-11-13T00:29:01;4.70;99.90
15969;DHT22;8085;53.472;9.794;2022-11-13T00:31:29;4.60;99.90
15969;DHT22;8085;53.472;9.794;2022-11-13T00:33:57;4.70;99.90
15969;DHT22;8085;53.472;9.794;2022-11-13T00:36:25;4.60;99.90
15969;DHT22;8085;53.472;9.794;2022-11-13T00:38:54;4.70;99.90
15969;DHT22;8085;53.472;9.794;2022-11-13T00:41:21;4.70;99.90
15969;DHT22;8085;53.472;9.794;2022-11-13T00:43:48;4.70;99.90
15969;DHT22;8085;53.472;9.794;2022-11-13T00:46:15;4.70;99.90
15969;DHT22;8085;53.472;9.794;2022-11-13T00:48:42;4.70;99.90
15969;DHT22;8085;53.472;9.794;2022-11-13T00:51:09;4.60;99.90
15969;DHT22;8085;53.472;9.794;2022-11-13T00:53:36;4.70;99.90
15969;DHT22;8085;53.472;9.794;2022-11-13T00:56:05;4.70;99.90
15969;DHT22;8085;53.472;9.794;2022-11-13T00:58:31;4.70;99.90
15969;DHT22;8085;53.472;9.794;2022-11-13T01:01:04;4.70;99.90
15969;DHT22;8085;53.472;9.794;2022-11-13T01:03:31;4.70;99.90
15969;DHT22;8085;53.472;9.794;2022-11-13T01:05:58;4.70;99.90
15969;DHT22;8085;53.472;9.794;2022-11-13T01:08:25;4.60;99.90
15969;DHT22;8085;53.472;9.794;2022-11-13T01:10:52;4.60;99.90
15969;DHT22;8085;53.472;9.794;2022-11-13T01:13:20;4.50;99.90
15969;DHT22;8085;53.472;9.794;2022-11-13T01:15:47;4.50;99.90
15969;DHT22;8085;53.472;9.794;2022-11-13T01:18:14;4.40;99.90
15969;DHT22;8085;53.472;9.794;2022-11-13T01:20:41;4.40;99.90
15969;DHT22;8085;53.472;9.794;2022-11-13T01:23:07;4.40;99.90
15969;DHT22;8085;53.472;9.794;2022-11-13T01:25:35;4.30;99.90
15969;DHT22;8085;53.472;9.794;2022-11-13T01:28:02;4.40;99.90
15969;DHT22;8085;53.472;9.794;2022-11-13T01:30:30;4.40;99.90
15969;DHT22;8085;53.472;9.794;2022-11-13T01:32:57;4.40;99.90
15969;DHT22;8085;53.472;9.794;2022-11-13T01:35:23;4.40;99.90
15969;DHT22;8085;53.472;9.794;2022-11-13T01:37:50;4.40;99.90
15969;DHT22;8085;53.472;9.794;2022-11-13T01:40:17;4.30;99.90
15969;DHT22;8085;53.472;9.794;2022-11-13T01:42:44;4.40;99.90
15969;DHT22;8085;53.472;9.794;2022-11-13T01:48:16;4.40;99.90
15969;DHT22;8085;53.472;9.794;2022-11-13T01:50:43;4.40;99.90
15969;DHT22;8085;53.472;9.794;2022-11-13T01:53:10;4.40;99.90
15969;DHT22;8085;53.472;9.794;2022-11-13T01:55:37;4.40;99.90
15969;DHT22;8085;53.472;9.794;2022-11-13T01:58:07;4.50;99.90
15969;DHT22;8085;53.472;9.794;2022-11-13T02:00:34;4.50;99.90
15969;DHT22;8085;53.472;9.794;2022-11-13T02:03:01;4.40;99.90
15969;DHT22;8085;53.472;9.794;2022-11-13T02:05:29;4.50;99.90
15969;DHT22;8085;53.472;9.794;2022-11-13T02:07:56;4.40;99.90
15969;DHT22;8085;53.472;9.794;2022-11-13T02:10:23;4.40;99.90
15969;DHT22;8085;53.472;9.794;2022-11-13T02:12:51;4.40;99.90
15969;DHT22;8085;53.472;9.794;2022-11-13T02:15:20;4.40;99.90
15969;DHT22;8085;53.472;9.794;2022-11-13T02:17:50;4.40;99.90
15969;DHT22;8085;53.472;9.794;2022-11-13T02:20:20;4.50;99.90
15969;DHT22;8085;53.472;9.794;2022-11-13T02:22:56;4.50;99.90
15969;DHT22;8085;53.472;9.794;2022-11-13T02:25:27;4.50;99.90
15969;DHT22;8085;53.472;9.794;2022-11-13T02:27:55;4.50;99.90
15969;DHT22;8085;53.472;9.794;2022-11-13T02:30:25;4.50;99.90
15969;DHT22;8085;53.472;9.794;2022-11-13T02:32:54;4.50;99.90
15969;DHT22;8085;53.472;9.794;2022-11-13T02:35:26;4.50;99.90
15969;DHT22;8085;53.472;9.794;2022-11-13T02:37:56;4.50;99.90
15969;DHT22;8085;53.472;9.794;2022-11-13T02:40:25;4.50;99.90
15969;DHT22;8085;53.472;9.794;2022-11-13T02:42:52;4.50;99.90
15969;DHT22;8085;53.472;9.794;2022-11-13T02:45:19;4.50;99.90
15969;DHT22;8085;53.472;9.794;2022-11-13T02:47:46;4.40;99.90
15969;DHT22;8085;53.472;9.794;2022-11-13T02:50:14;4.50;99.90
15969;DHT22;8085;53.472;9.794;2022-11-13T02:52:41;4.50;99.90
15969;DHT22;8085;53.472;9.794;2022-11-13T02:55:08;4.50;99.90
15969;DHT22;8085;53.472;9.794;2022-11-13T02:57:37;4.50;99.90
15969;DHT22;8085;53.472;9.794;2022-11-13T03:00:04;4.50;99.90
15969;DHT22;8085;53.472;9.794;2022-11-13T03:02:31;4.50;99.90
15969;DHT22;8085;53.472;9.794;2022-11-13T03:04:58;4.50;99.90
15969;DHT22;8085;53.472;9.794;2022-11-13T03:07:25;4.50;99.90
15969;DHT22;8085;53.472;9.794;2022-11-13T03:09:52;4.50;99.90
15969;DHT22;8085;53.472;9.794;2022-11-13T03:12:19;4.50;99.90
15969;DHT22;8085;53.472;9.794;2022-11-13T03:14:47;4.60;99.90
15969;DHT22;8085;53.472;9.794;2022-11-13T03:17:14;4.60;99.90
15969;DHT22;8085;53.472;9.794;2022-11-13T03:19:40;4.60;99.90
15969;DHT22;8085;53.472;9.794;2022-11-13T03:22:07;4.60;99.90
15969;DHT22;8085;53.472;9.794;2022-11-13T03:24:34;4.60;99.90
15969;DHT22;8085;53.472;9.794;2022-11-13T03:27:01;4.50;99.90
15969;DHT22;8085;53.472;9.794;2022-11-13T03:29:27;4.50;99.90
15969;DHT22;8085;53.472;9.794;2022-11-13T03:31:56;4.50;99.90
15969;DHT22;8085;53.472;9.794;2022-11-13T03:34:22;4.60;99.90
15969;DHT22;8085;53.472;9.794;2022-11-13T03:36:49;4.60;99.90
15969;DHT22;8085;53.472;9.794;2022-11-13T03:39:16;4.60;99.90
15969;DHT22;8085;53.472;9.794;2022-11-13T03:41:43;4.60;99.90
15969;DHT22;8085;53.472;9.794;2022-11-13T03:44:10;4.60;99.90
15969;DHT22;8085;53.472;9.794;2022-11-13T03:46:37;4.60;99.90
15969;DHT22;8085;53.472;9.794;2022-11-13T03:49:05;4.60;99.90
15969;DHT22;8085;53.472;9.794;2022-11-13T03:51:32;4.60;99.90
15969;DHT22;8085;53.472;9.794;2022-11-13T03:53:59;4.60;99.90
15969;DHT22;8085;53.472;9.794;2022-11-13T03:56:26;4.60;99.90
15969;DHT22;8085;53.472;9.794;2022-11-13T03:58:53;4.70;99.90
15969;DHT22;8085;53.472;9.794;2022-11-13T04:01:19;4.70;99.90
15969;DHT22;8085;53.472;9.794;2022-11-13T04:03:46;4.70;99.90
15969;DHT22;8085;53.472;9.794;2022-11-13T04:06:14;4.70;99.90
15969;DHT22;8085;53.472;9.794;2022-11-13T04:08:42;4.70;99.90
15969;DHT22;8085;53.472;9.794;2022-11-13T04:11:09;4.70;99.90
15969;DHT22;8085;53.472;9.794;2022-11-13T04:13:36;4.70;99.90
15969;DHT22;8085;53.472;9.794;2022-11-13T04:16:04;4.70;99.90
15969;DHT22;8085;53.472;9.794;2022-11-13T04:18:31;4.70;99.90
15969;DHT22;8085;53.472;9.794;2022-11-13T04:20:58;4.70;99.90
15969;DHT22;8085;53.472;9.794;2022-11-13T04:23:27;4.70;99.90
15969;DHT22;8085;53.472;9.794;2022-11-13T04:25:54;4.70;99.90
15969;DHT22;8085;53.472;9.794;2022-11-13T04:28:21;4.70;99.90
15969;DHT22;8085;53.472;9.794;2022-11-13T04:30:48;4.70;99.90
15969;DHT22;8085;53.472;9.794;2022-11-13T04:33:15;4.70;99.90
15969;DHT22;8085;53.472;9.794;2022-11-13T04:35:41;4.60;99.90
15969;DHT22;8085;53.472;9.794;2022-11-13T04:38:10;4.60;99.90
15969;DHT22;8085;53.472;9.794;2022-11-13T04:40:39;4.60;99.90
15969;DHT22;8085;53.472;9.794;2022-11-13T04:43:06;4.60;99.90
15969;DHT22;8085;53.472;9.794;2022-11-13T04:45:32;4.60;99.90
15969;DHT22;8085;53.472;9.794;2022-11-13T04:47:59;4.50;99.90
15969;DHT22;8085;53.472;9.794;2022-11-13T04:50:26;4.50;99.90
15969;DHT22;8085;53.472;9.794;2022-11-13T04:52:52;4.50;99.90
15969;DHT22;8085;53.472;9.794;2022-11-13T04:55:19;4.50;99.90
15969;DHT22;8085;53.472;9.794;2022-11-13T04:57:47;4.40;99.90
15969;DHT22;8085;53.472;9.794;2022-11-13T05:00:16;4.40;99.90
15969;DHT22;8085;53.472;9.794;2022-11-13T05:02:43;4.40;99.90
15969;DHT22;8085;53.472;9.794;2022-11-13T05:05:10;4.40;99.90
15969;DHT22;8085;53.472;9.794;2022-11-13T05:07:36;4.40;99.90
15969;DHT22;8085;53.472;9.794;2022-11-13T05:10:04;4.30;99.90
15969;DHT22;8085;53.472;9.794;2022-11-13T05:12:31;4.30;99.90
15969;DHT22;8085;53.472;9.794;2022-11-13T05:14:59;4.30;99.90
15969;DHT22;8085;53.472;9.794;2022-11-13T05:17:26;4.20;99.90
15969;DHT22;8085;53.472;9.794;2022-11-13T05:19:53;4.20;99.90
15969;DHT22;8085;53.472;9.794;2022-11-13T05:22:20;4.20;99.90
15969;DHT22;8085;53.472;9.794;2022-11-13T05:24:46;4.20;99.90
15969;DHT22;8085;53.472;9.794;2022-11-13T05:27:13;4.10;99.90
15969;DHT22;8085;53.472;9.794;2022-11-13T05:29:40;4.10;99.90
15969;DHT22;8085;53.472;9.794;2022-11-13T05:32:08;4.10;99.90
15969;DHT22;8085;53.472;9.794;2022-11-13T05:34:35;4.10;99.90
15969;DHT22;8085;53.472;9.794;2022-11-13T05:37:01;4.10;99.90
15969;DHT22;8085;53.472;9.794;2022-11-13T05:39:28;4.10;99.90
15969;DHT22;8085;53.472;9.794;2022-11-13T05:41:55;4.10;99.90
15969;DHT22;8085;53.472;9.794;2022-11-13T05:44:22;4.00;99.90
15969;DHT22;8085;53.472;9.794;2022-11-13T05:46:49;4.00;99.90
15969;DHT22;8085;53.472;9.794;2022-11-13T05:49:17;4.00;99.90
15969;DHT22;8085;53.472;9.794;2022-11-13T05:51:44;4.00;99.90
15969;DHT22;8085;53.472;9.794;2022-11-13T05:54:10;3.90;99.90
15969;DHT22;8085;53.472;9.794;2022-11-13T05:56:37;3.90;99.90
15969;DHT22;8085;53.472;9.794;2022-11-13T05:59:05;3.90;99.90
15969;DHT22;8085;53.472;9.794;2022-11-13T06:01:34;3.80;99.90
15969;DHT22;8085;53.472;9.794;2022-11-13T06:04:01;3.80;99.90
15969;DHT22;8085;53.472;9.794;2022-11-13T06:06:30;3.80;99.90
15969;DHT22;8085;53.472;9.794;2022-11-13T06:08:58;3.80;99.90
15969;DHT22;8085;53.472;9.794;2022-11-13T06:11:27;3.80;99.90
15969;DHT22;8085;53.472;9.794;2022-11-13T06:13:55;3.80;99.90
15969;DHT22;8085;53.472;9.794;2022-11-13T06:16:23;3.80;99.90
15969;DHT22;8085;53.472;9.794;2022-11-13T06:18:54;3.80;99.90
15969;DHT22;8085;53.472;9.794;2022-11-13T06:21:23;3.70;99.90
15969;DHT22;8085;53.472;9.794;2022-11-13T06:23:52;3.70;99.90
15969;DHT22;8085;53.472;9.794;2022-11-13T06:26:21;3.70;99.90
15969;DHT22;8085;53.472;9.794;2022-11-13T06:28:48;3.70;99.90
15969;DHT22;8085;53.472;9.794;2022-11-13T06:31:17;3.70;99.90
15969;DHT22;8085;53.472;9.794;2022-11-13T06:33:44;3.70;99.90
15969;DHT22;8085;53.472;9.794;2022-11-13T06:36:13;3.70;99.90
15969;DHT22;8085;53.472;9.794;2022-11-13T06:38:41;3.70;99.90
15969;DHT22;8085;53.472;9.794;2022-11-13T06:41:11;3.70;99.90
15969;DHT22;8085;53.472;9.794;2022-11-13T06:43:38;3.70;99.90
15969;DHT22;8085;53.472;9.794;2022-11-13T06:46:08;3.70;99.90
15969;DHT22;8085;53.472;9.794;2022-11-13T06:48:35;3.70;99.90
15969;DHT22;8085;53.472;9.794;2022-11-13T06:51:04;3.70;99.90
15969;DHT22;8085;53.472;9.794;2022-11-13T06:53:31;3.70;99.90
15969;DHT22;8085;53.472;9.794;2022-11-13T06:55:59;3.70;99.90
15969;DHT22;8085;53.472;9.794;2022-11-13T06:58:27;3.70;99.90
15969;DHT22;8085;53.472;9.794;2022-11-13T07:00:54;3.70;99.90
15969;DHT22;8085;53.472;9.794;2022-11-13T07:03:25;3.70;99.90
15969;DHT22;8085;53.472;9.794;2022-11-13T07:05:52;3.70;99.90
15969;DHT22;8085;53.472;9.794;2022-11-13T07:08:19;3.70;99.90
15969;DHT22;8085;53.472;9.794;2022-11-13T07:10:51;3.70;99.90
15969;DHT22;8085;53.472;9.794;2022-11-13T07:13:19;3.70;99.90
15969;DHT22;8085;53.472;9.794;2022-11-13T07:15:47;3.70;99.90
15969;DHT22;8085;53.472;9.794;2022-11-13T07:18:14;3.70;99.90
15969;DHT22;8085;53.472;9.794;2022-11-13T07:20:41;3.70;99.90
15969;DHT22;8085;53.472;9.794;2022-11-13T07:23:07;3.70;99.90
15969;DHT22;8085;53.472;9.794;2022-11-13T07:25:34;3.80;99.90
15969;DHT22;8085;53.472;9.794;2022-11-13T07:28:02;3.80;99.90
15969;DHT22;8085;53.472;9.794;2022-11-13T07:30:29;3.80;99.90
15969;DHT22;8085;53.472;9.794;2022-11-13T07:33:00;3.80;99.90
15969;DHT22;8085;53.472;9.794;2022-11-13T07:35:27;3.80;99.90
15969;DHT22;8085;53.472;9.794;2022-11-13T07:37:54;3.80;99.90
15969;DHT22;8085;53.472;9.794;2022-11-13T07:40:21;3.80;99.90
15969;DHT22;8085;53.472;9.794;2022-11-13T07:42:55;3.90;99.90
15969;DHT22;8085;53.472;9.794;2022-11-13T07:45:22;3.90;99.90
15969;DHT22;8085;53.472;9.794;2022-11-13T07:47:49;3.90;99.90
15969;DHT22;8085;53.472;9.794;2022-11-13T07:50:17;3.90;99.90
15969;DHT22;8085;53.472;9.794;2022-11-13T07:52:44;4.00;99.90
15969;DHT22;8085;53.472;9.794;2022-11-13T07:55:11;4.00;99.90
15969;DHT22;8085;53.472;9.794;2022-11-13T07:57:37;4.10;99.90
15969;DHT22;8085;53.472;9.794;2022-11-13T08:00:05;4.10;99.90
15969;DHT22;8085;53.472;9.794;2022-11-13T08:02:32;4.20;99.90
15969;DHT22;8085;53.472;9.794;2022-11-13T08:04:59;4.30;99.90
15969;DHT22;8085;53.472;9.794;2022-11-13T08:07:27;4.40;99.90
15969;DHT22;8085;53.472;9.794;2022-11-13T08:09:54;4.50;99.90
15969;DHT22;8085;53.472;9.794;2022-11-13T08:12:21;4.60;99.90
15969;DHT22;8085;53.472;9.794;2022-11-13T08:14:47;4.70;99.90
15969;DHT22;8085;53.472;9.794;2022-11-13T08:17:14;4.70;99.90
15969;DHT22;8085;53.472;9.794;2022-11-13T08:19:41;4.80;99.90
15969;DHT22;8085;53.472;9.794;2022-11-13T08:22:08;4.90;99.90
15969;DHT22;8085;53.472;9.794;2022-11-13T08:24:36;5.00;99.90
15969;DHT22;8085;53.472;9.794;2022-11-13T08:27:04;5.10;99.90
15969;DHT22;8085;53.472;9.794;2022-11-13T08:29:31;5.10;99.90
15969;DHT22;8085;53.472;9.794;2022-11-13T08:31:58;5.20;99.90
15969;DHT22;8085;53.472;9.794;2022-11-13T08:34:25;5.30;99.90
15969;DHT22;8085;53.472;9.794;2022-11-13T08:36:52;5.30;99.90
15969;DHT22;8085;53.472;9.794;2022-11-13T08:39:19;5.40;99.90
15969;DHT22;8085;53.472;9.794;2022-11-13T08:41:47;5.50;99.90
15969;DHT22;8085;53.472;9.794;2022-11-13T08:44:14;5.60;99.90
15969;DHT22;8085;53.472;9.794;2022-11-13T08:46:41;5.60;99.90
15969;DHT22;8085;53.472;9.794;2022-11-13T08:49:08;5.60;99.90
15969;DHT22;8085;53.472;9.794;2022-11-13T08:51:35;5.70;99.90
15969;DHT22;8085;53.472;9.794;2022-11-13T08:54:02;5.70;99.90
15969;DHT22;8085;53.472;9.794;2022-11-13T08:56:29;5.80;99.90
15969;DHT22;8085;53.472;9.794;2022-11-13T08:58:57;5.80;99.90
15969;DHT22;8085;53.472;9.794;2022-11-13T09:01:24;5.80;99.90
15969;DHT22;8085;53.472;9.794;2022-11-13T09:03:51;5.80;99.90
15969;DHT22;8085;53.472;9.794;2022-11-13T09:06:18;5.80;99.90
15969;DHT22;8085;53.472;9.794;2022-11-13T09:08:45;5.90;99.90
15969;DHT22;8085;53.472;9.794;2022-11-13T09:11:11;5.90;99.90
15969;DHT22;8085;53.472;9.794;2022-11-13T09:13:38;5.90;99.90
15969;DHT22;8085;53.472;9.794;2022-11-13T09:16:07;5.90;99.90
15969;DHT22;8085;53.472;9.794;2022-11-13T09:18:34;5.90;99.90
15969;DHT22;8085;53.472;9.794;2022-11-13T09:21:01;5.90;99.90
15969;DHT22;8085;53.472;9.794;2022-11-13T09:23:28;6.00;99.90
15969;DHT22;8085;53.472;9.794;2022-11-13T09:25:55;6.00;99.90
15969;DHT22;8085;53.472;9.794;2022-11-13T09:28:22;6.10;99.90
15969;DHT22;8085;53.472;9.794;2022-11-13T09:30:49;6.10;99.90
15969;DHT22;8085;53.472;9.794;2022-11-13T09:33:17;6.10;99.90
15969;DHT22;8085;53.472;9.794;2022-11-13T09:35:44;6.10;99.90
15969;DHT22;8085;53.472;9.794;2022-11-13T09:38:13;6.20;99.90
15969;DHT22;8085;53.472;9.794;2022-11-13T09:40:42;6.30;99.90
15969;DHT22;8085;53.472;9.794;2022-11-13T09:43:22;6.30;99.90
15969;DHT22;8085;53.472;9.794;2022-11-13T09:45:56;6.40;99.90
15969;DHT22;8085;53.472;9.794;2022-11-13T09:48:29;6.40;99.90
15969;DHT22;8085;53.472;9.794;2022-11-13T09:50:58;6.40;99.90
15969;DHT22;8085;53.472;9.794;2022-11-13T09:53:30;6.40;99.90
15969;DHT22;8085;53.472;9.794;2022-11-13T09:56:06;6.40;99.90
15969;DHT22;8085;53.472;9.794;2022-11-13T09:58:45;6.40;99.90
15969;DHT22;8085;53.472;9.794;2022-11-13T10:01:20;6.40;99.90
15969;DHT22;8085;53.472;9.794;2022-11-13T10:03:56;6.40;99.90
15969;DHT22;8085;53.472;9.794;2022-11-13T10:06:38;6.50;99.90
15969;DHT22;8085;53.472;9.794;2022-11-13T10:09:14;6.50;99.90
15969;DHT22;8085;53.472;9.794;2022-11-13T10:11:50;6.60;99.90
15969;DHT22;8085;53.472;9.794;2022-11-13T10:14:22;6.60;99.90
15969;DHT22;8085;53.472;9.794;2022-11-13T10:16:53;6.70;99.90
15969;DHT22;8085;53.472;9.794;2022-11-13T10:19:26;6.70;99.90
15969;DHT22;8085;53.472;9.794;2022-11-13T10:21:58;6.70;99.90
15969;DHT22;8085;53.472;9.794;2022-11-13T10:24:36;6.70;99.90
15969;DHT22;8085;53.472;9.794;2022-11-13T10:27:07;6.80;99.90
15969;DHT22;8085;53.472;9.794;2022-11-13T10:29:34;6.80;99.90
15969;DHT22;8085;53.472;9.794;2022-11-13T10:32:15;6.90;99.90
15969;DHT22;8085;53.472;9.794;2022-11-13T10:34:45;7.00;99.90
15969;DHT22;8085;53.472;9.794;2022-11-13T10:37:26;7.00;99.90
15969;DHT22;8085;53.472;9.794;2022-11-13T10:39:53;7.00;99.90
15969;DHT22;8085;53.472;9.794;2022-11-13T10:42:22;7.10;99.90
15969;DHT22;8085;53.472;9.794;2022-11-13T10:44:54;7.10;99.90
15969;DHT22;8085;53.472;9.794;2022-11-13T10:47:24;7.10;99.90
15969;DHT22;8085;53.472;9.794;2022-11-13T10:49:54;7.10;99.90
15969;DHT22;8085;53.472;9.794;2022-11-13T10:52:22;7.10;99.90
15969;DHT22;8085;53.472;9.794;2022-11-13T10:54:50;7.20;99.90
15969;DHT22;8085;53.472;9.794;2022-11-13T10:57:27;7.20;99.90
15969;DHT22;8085;53.472;9.794;2022-11-13T10:59:54;7.30;99.90
15969;DHT22;8085;53.472;9.794;2022-11-13T11:02:24;7.30;99.90
15969;DHT22;8085;53.472;9.794;2022-11-13T11:05:03;7.30;99.90
15969;DHT22;8085;53.472;9.794;2022-11-13T11:07:34;7.30;99.90
15969;DHT22;8085;53.472;9.794;2022-11-13T11:10:13;7.30;99.90
15969;DHT22;8085;53.472;9.794;2022-11-13T11:12:50;7.30;99.90
15969;DHT22;8085;53.472;9.794;2022-11-13T11:15:22;7.40;99.90
15969;DHT22;8085;53.472;9.794;2022-11-13T11:17:51;7.40;99.90
15969;DHT22;8085;53.472;9.794;2022-11-13T11:20:25;7.50;99.90
15969;DHT22;8085;53.472;9.794;2022-11-13T11:22:58;7.50;99.90
15969;DHT22;8085;53.472;9.794;2022-11-13T11:25:36;7.50;99.90
15969;DHT22;8085;53.472;9.794;2022-11-13T11:28:10;7.50;99.90
15969;DHT22;8085;53.472;9.794;2022-11-13T11:30:44;7.40;99.90
15969;DHT22;8085;53.472;9.794;2022-11-13T11:33:17;7.40;99.90
15969;DHT22;8085;53.472;9.794;2022-11-13T11:35:49;7.40;99.90
15969;DHT22;8085;53.472;9.794;2022-11-13T11:38:23;7.40;99.90
15969;DHT22;8085;53.472;9.794;2022-11-13T11:40:54;7.30;99.90
15969;DHT22;8085;53.472;9.794;2022-11-13T11:43:28;7.30;99.90
15969;DHT22;8085;53.472;9.794;2022-11-13T11:45:59;7.30;99.90
15969;DHT22;8085;53.472;9.794;2022-11-13T11:48:29;7.30;99.90
15969;DHT22;8085;53.472;9.794;2022-11-13T11:51:02;7.30;99.90
15969;DHT22;8085;53.472;9.794;2022-11-13T11:53:37;7.20;99.90
15969;DHT22;8085;53.472;9.794;2022-11-13T11:56:20;7.20;99.90
15969;DHT22;8085;53.472;9.794;2022-11-13T11:59:07;7.20;99.90
15969;DHT22;8085;53.472;9.794;2022-11-13T12:04:34;7.20;99.90
15969;DHT22;8085;53.472;9.794;2022-11-13T12:07:16;7.20;99.90
15969;DHT22;8085;53.472;9.794;2022-11-13T12:09:53;7.20;99.90
15969;DHT22;8085;53.472;9.794;2022-11-13T12:12:26;7.20;99.90
15969;DHT22;8085;53.472;9.794;2022-11-13T12:15:02;7.20;99.90
15969;DHT22;8085;53.472;9.794;2022-11-13T12:17:43;7.30;99.90
15969;DHT22;8085;53.472;9.794;2022-11-13T12:20:24;7.40;99.90
15969;DHT22;8085;53.472;9.794;2022-11-13T12:23:01;7.30;99.90
15969;DHT22;8085;53.472;9.794;2022-11-13T12:25:35;7.30;99.90
15969;DHT22;8085;53.472;9.794;2022-11-13T12:28:12;7.40;99.90
15969;DHT22;8085;53.472;9.794;2022-11-13T12:30:47;7.30;99.90
15969;DHT22;8085;53.472;9.794;2022-11-13T12:33:24;7.30;99.90
15969;DHT22;8085;53.472;9.794;2022-11-13T12:35:52;7.40;99.90
15969;DHT22;8085;53.472;9.794;2022-11-13T12:38:32;7.40;99.90
15969;DHT22;8085;53.472;9.794;2022-11-13T12:41:05;7.40;99.90
15969;DHT22;8085;53.472;9.794;2022-11-13T12:46:41;7.40;99.90
15969;DHT22;8085;53.472;9.794;2022-11-13T12:49:26;7.40;99.90
15969;DHT22;8085;53.472;9.794;2022-11-13T12:51:54;7.50;99.90
15969;DHT22;8085;53.472;9.794;2022-11-13T12:54:28;7.50;99.90
15969;DHT22;8085;53.472;9.794;2022-11-13T12:57:15;7.50;99.90
15969;DHT22;8085;53.472;9.794;2022-11-13T12:59:45;7.60;99.90
15969;DHT22;8085;53.472;9.794;2022-11-13T13:05:17;7.60;99.90
15969;DHT22;8085;53.472;9.794;2022-11-13T13:08:06;7.60;99.90
15969;DHT22;8085;53.472;9.794;2022-11-13T13:10:55;7.70;99.90
15969;DHT22;8085;53.472;9.794;2022-11-13T13:13:30;7.70;99.90
15969;DHT22;8085;53.472;9.794;2022-11-13T13:15:58;7.70;99.90
15969;DHT22;8085;53.472;9.794;2022-11-13T13:18:29;7.70;99.90
15969;DHT22;8085;53.472;9.794;2022-11-13T13:21:04;7.60;99.90
15969;DHT22;8085;53.472;9.794;2022-11-13T13:23:33;7.70;99.90
15969;DHT22;8085;53.472;9.794;2022-11-13T13:26:04;7.70;99.90
15969;DHT22;8085;53.472;9.794;2022-11-13T13:28:31;7.70;99.90
15969;DHT22;8085;53.472;9.794;2022-11-13T13:31:04;7.70;99.90
15969;DHT22;8085;53.472;9.794;2022-11-13T13:33:40;7.70;99.90
15969;DHT22;8085;53.472;9.794;2022-11-13T13:36:17;7.70;99.90
15969;DHT22;8085;53.472;9.794;2022-11-13T13:38:52;7.70;99.90
15969;DHT22;8085;53.472;9.794;2022-11-13T13:41:32;7.80;99.90
15969;DHT22;8085;53.472;9.794;2022-11-13T13:44:23;7.80;99.90
15969;DHT22;8085;53.472;9.794;2022-11-13T13:46:51;7.90;99.90
15969;DHT22;8085;53.472;9.794;2022-11-13T13:49:22;7.90;99.90
15969;DHT22;8085;53.472;9.794;2022-11-13T13:51:51;7.90;99.90
15969;DHT22;8085;53.472;9.794;2022-11-13T13:54:22;7.90;99.90
15969;DHT22;8085;53.472;9.794;2022-11-13T13:56:52;7.90;99.90
15969;DHT22;8085;53.472;9.794;2022-11-13T13:59:22;7.90;99.90
15969;DHT22;8085;53.472;9.794;2022-11-13T14:01:53;7.90;99.90
15969;DHT22;8085;53.472;9.794;2022-11-13T14:04:23;7.90;99.90
15969;DHT22;8085;53.472;9.794;2022-11-13T14:06:52;8.00;99.90
15969;DHT22;8085;53.472;9.794;2022-11-13T14:09:20;8.00;99.90
15969;DHT22;8085;53.472;9.794;2022-11-13T14:11:49;8.00;99.90
15969;DHT22;8085;53.472;9.794;2022-11-13T14:14:23;8.00;99.90
15969;DHT22;8085;53.472;9.794;2022-11-13T14:16:52;8.00;99.90
15969;DHT22;8085;53.472;9.794;2022-11-13T14:19:19;8.10;99.90
15969;DHT22;8085;53.472;9.794;2022-11-13T14:21:48;8.10;99.90
15969;DHT22;8085;53.472;9.794;2022-11-13T14:24:20;8.10;99.90
15969;DHT22;8085;53.472;9.794;2022-11-13T14:26:48;8.10;99.90
15969;DHT22;8085;53.472;9.794;2022-11-13T14:29:28;8.20;99.90
15969;DHT22;8085;53.472;9.794;2022-11-13T14:32:02;8.10;99.90
15969;DHT22;8085;53.472;9.794;2022-11-13T14:34:29;8.20;99.90
15969;DHT22;8085;53.472;9.794;2022-11-13T14:37:16;8.10;99.90
15969;DHT22;8085;53.472;9.794;2022-11-13T14:39:45;8.10;99.90
15969;DHT22;8085;53.472;9.794;2022-11-13T14:42:16;8.10;99.90
15969;DHT22;8085;53.472;9.794;2022-11-13T14:44:45;8.10;99.90
15969;DHT22;8085;53.472;9.794;2022-11-13T14:47:23;8.10;99.90
15969;DHT22;8085;53.472;9.794;2022-11-13T14:49:51;8.10;99.90
15969;DHT22;8085;53.472;9.794;2022-11-13T14:52:24;8.00;99.90
15969;DHT22;8085;53.472;9.794;2022-11-13T14:55:02;8.00;99.90
15969;DHT22;8085;53.472;9.794;2022-11-13T14:57:30;8.10;99.90
15969;DHT22;8085;53.472;9.794;2022-11-13T15:02:35;8.00;99.90
15969;DHT22;8085;53.472;9.794;2022-11-13T15:05:02;8.10;99.90
15969;DHT22;8085;53.472;9.794;2022-11-13T15:07:31;8.00;99.90
15969;DHT22;8085;53.472;9.794;2022-11-13T15:09:58;8.10;99.90
15969;DHT22;8085;53.472;9.794;2022-11-13T15:12:25;8.10;99.90
15969;DHT22;8085;53.472;9.794;2022-11-13T15:14:52;8.10;99.90
15969;DHT22;8085;53.472;9.794;2022-11-13T15:17:21;8.10;99.90
15969;DHT22;8085;53.472;9.794;2022-11-13T15:19:51;8.10;99.90
15969;DHT22;8085;53.472;9.794;2022-11-13T15:22:19;8.10;99.90
15969;DHT22;8085;53.472;9.794;2022-11-13T15:24:46;8.10;99.90
15969;DHT22;8085;53.472;9.794;2022-11-13T15:27:14;8.10;99.90
15969;DHT22;8085;53.472;9.794;2022-11-13T15:29:41;8.10;99.90
15969;DHT22;8085;53.472;9.794;2022-11-13T15:32:10;8.10;99.90
15969;DHT22;8085;53.472;9.794;2022-11-13T15:34:38;8.10;99.90
15969;DHT22;8085;53.472;9.794;2022-11-13T15:37:13;8.20;99.90
15969;DHT22;8085;53.472;9.794;2022-11-13T15:39:40;8.20;99.90
15969;DHT22;8085;53.472;9.794;2022-11-13T15:42:10;8.20;99.90
15969;DHT22;8085;53.472;9.794;2022-11-13T15:44:38;8.20;99.90
15969;DHT22;8085;53.472;9.794;2022-11-13T15:47:15;8.20;99.90
15969;DHT22;8085;53.472;9.794;2022-11-13T15:49:46;8.10;99.90
15969;DHT22;8085;53.472;9.794;2022-11-13T15:52:12;8.20;99.90
15969;DHT22;8085;53.472;9.794;2022-11-13T15:54:39;8.20;99.90
15969;DHT22;8085;53.472;9.794;2022-11-13T15:57:08;8.20;99.90
15969;DHT22;8085;53.472;9.794;2022-11-13T15:59:35;8.20;99.90
15969;DHT22;8085;53.472;9.794;2022-11-13T16:02:02;8.20;99.90
15969;DHT22;8085;53.472;9.794;2022-11-13T16:04:29;8.20;99.90
15969;DHT22;8085;53.472;9.794;2022-11-13T16:06:57;8.20;99.90
15969;DHT22;8085;53.472;9.794;2022-11-13T16:09:24;8.20;99.90
15969;DHT22;8085;53.472;9.794;2022-11-13T16:11:51;8.10;99.90
15969;DHT22;8085;53.472;9.794;2022-11-13T16:14:18;8.10;99.90
15969;DHT22;8085;53.472;9.794;2022-11-13T16:16:45;8.20;99.90
15969;DHT22;8085;53.472;9.794;2022-11-13T16:19:16;8.20;99.90
15969;DHT22;8085;53.472;9.794;2022-11-13T16:21:44;8.20;99.90
15969;DHT22;8085;53.472;9.794;2022-11-13T16:24:12;8.20;99.90
15969;DHT22;8085;53.472;9.794;2022-11-13T16:26:40;8.20;99.90
15969;DHT22;8085;53.472;9.794;2022-11-13T16:29:21;8.20;99.90
15969;DHT22;8085;53.472;9.794;2022-11-13T16:31:48;8.20;99.90